sensor_id;sensor_type;location;lat;lon;timestamp;P1;durP1;ratioP1;P2;durP2;ratioP2
6937;SDS011;40040;42.706;23.372;2023-03-29T00:00:05;5.00;;;3.33;;
6937;SDS011;40040;42.706;23.372;2023-03-29T00:02:38;3.50;;;3.00;;
6937;SDS011;40040;42.706;23.372;2023-03-29T00:05:05;4.23;;;2.80;;
6937;SDS011;40040;42.706;23.372;2023-03-29T00:07:32;3.83;;;3.17;;
6937;SDS011;40040;42.706;23.372;2023-03-29T00:10:01;4.90;;;3.53;;
6937;SDS011;40040;42.706;23.372;2023-03-29T00:12:29;3.13;;;2.90;;
6937;SDS011;40040;42.706;23.372;2023-03-29T00:14:56;3.10;;;2.83;;
6937;SDS011;40040;42.706;23.372;2023-03-29T00:17:23;5.30;;;3.17;;
6937;SDS011;40040;42.706;23.372;2023-03-29T00:19:49;4.73;;;3.10;;
6937;SDS011;40040;42.706;23.372;2023-03-29T00:22:16;4.03;;;3.10;;
6937;SDS011;40040;42.706;23.372;2023-03-29T00:24:43;3.23;;;3.00;;
6937;SDS011;40040;42.706;23.372;2023-03-29T00:27:13;4.93;;;3.57;;
6937;SDS011;40040;42.706;23.372;2023-03-29T00:29:40;4.13;;;3.33;;
6937;SDS011;40040;42.706;23.372;2023-03-29T00:32:07;4.07;;;3.50;;
6937;SDS011;40040;42.706;23.372;2023-03-29T00:34:34;5.10;;;2.90;;
6937;SDS011;40040;42.706;23.372;2023-03-29T00:37:01;3.97;;;2.93;;
6937;SDS011;40040;42.706;23.372;2023-03-29T00:39:32;4.13;;;3.00;;
6937;SDS011;40040;42.706;23.372;2023-03-29T00:42:00;3.70;;;3.20;;
6937;SDS011;40040;42.706;23.372;2023-03-29T00:47:39;3.80;;;2.53;;
6937;SDS011;40040;42.706;23.372;2023-03-29T00:50:09;4.80;;;3.17;;
6937;SDS011;40040;42.706;23.372;2023-03-29T00:52:41;3.90;;;3.20;;
6937;SDS011;40040;42.706;23.372;2023-03-29T00:55:15;2.87;;;2.67;;
6937;SDS011;40040;42.706;23.372;2023-03-29T00:57:45;4.13;;;3.17;;
6937;SDS011;40040;42.706;23.372;2023-03-29T01:00:14;3.10;;;2.80;;
6937;SDS011;40040;42.706;23.372;2023-03-29T01:02:46;4.57;;;3.00;;
6937;SDS011;40040;42.706;23.372;2023-03-29T01:05:18;3.30;;;3.00;;
6937;SDS011;40040;42.706;23.372;2023-03-29T01:07:52;4.00;;;3.40;;
6937;SDS011;40040;42.706;23.372;2023-03-29T01:10:24;3.73;;;3.00;;
6937;SDS011;40040;42.706;23.372;2023-03-29T01:12:56;2.70;;;2.50;;
6937;SDS011;40040;42.706;23.372;2023-03-29T01:15:27;4.73;;;3.03;;
6937;SDS011;40040;42.706;23.372;2023-03-29T01:17:56;4.50;;;2.67;;
6937;SDS011;40040;42.706;23.372;2023-03-29T01:20:29;2.90;;;2.60;;
6937;SDS011;40040;42.706;23.372;2023-03-29T01:23:20;3.53;;;3.20;;
6937;SDS011;40040;42.706;23.372;2023-03-29T01:25:59;5.37;;;3.13;;
6937;SDS011;40040;42.706;23.372;2023-03-29T01:28:32;3.17;;;2.97;;
6937;SDS011;40040;42.706;23.372;2023-03-29T01:31:04;3.67;;;3.00;;
6937;SDS011;40040;42.706;23.372;2023-03-29T01:33:36;2.70;;;2.23;;
6937;SDS011;40040;42.706;23.372;2023-03-29T01:36:08;3.20;;;2.90;;
6937;SDS011;40040;42.706;23.372;2023-03-29T01:38:41;4.87;;;2.87;;
6937;SDS011;40040;42.706;23.372;2023-03-29T01:41:11;2.87;;;2.60;;
6937;SDS011;40040;42.706;23.372;2023-03-29T01:43:40;2.70;;;2.50;;
6937;SDS011;40040;42.706;23.372;2023-03-29T01:46:16;6.23;;;2.90;;
6937;SDS011;40040;42.706;23.372;2023-03-29T01:48:52;3.50;;;3.00;;
6937;SDS011;40040;42.706;23.372;2023-03-29T01:51:23;3.00;;;2.80;;
6937;SDS011;40040;42.706;23.372;2023-03-29T01:53:55;3.50;;;3.10;;
6937;SDS011;40040;42.706;23.372;2023-03-29T01:56:26;3.13;;;2.83;;
6937;SDS011;40040;42.706;23.372;2023-03-29T01:58:59;4.40;;;2.90;;
6937;SDS011;40040;42.706;23.372;2023-03-29T02:01:31;5.20;;;2.80;;
6937;SDS011;40040;42.706;23.372;2023-03-29T02:04:03;4.17;;;2.70;;
6937;SDS011;40040;42.706;23.372;2023-03-29T02:06:35;3.07;;;2.60;;
6937;SDS011;40040;42.706;23.372;2023-03-29T02:09:04;5.33;;;3.30;;
6937;SDS011;40040;42.706;23.372;2023-03-29T02:11:33;2.27;;;2.10;;
6937;SDS011;40040;42.706;23.372;2023-03-29T02:14:02;3.17;;;2.87;;
6937;SDS011;40040;42.706;23.372;2023-03-29T02:16:33;3.17;;;2.80;;
6937;SDS011;40040;42.706;23.372;2023-03-29T02:19:00;3.90;;;2.90;;
6937;SDS011;40040;42.706;23.372;2023-03-29T02:21:29;6.57;;;2.90;;
6937;SDS011;40040;42.706;23.372;2023-03-29T02:23:59;2.80;;;2.57;;
6937;SDS011;40040;42.706;23.372;2023-03-29T02:26:31;3.63;;;2.97;;
6937;SDS011;40040;42.706;23.372;2023-03-29T02:28:58;3.80;;;2.80;;
6937;SDS011;40040;42.706;23.372;2023-03-29T02:31:27;3.17;;;2.90;;
6937;SDS011;40040;42.706;23.372;2023-03-29T02:34:00;4.17;;;2.73;;
6937;SDS011;40040;42.706;23.372;2023-03-29T02:36:32;3.70;;;3.17;;
6937;SDS011;40040;42.706;23.372;2023-03-29T02:39:05;4.53;;;3.00;;
6937;SDS011;40040;42.706;23.372;2023-03-29T02:41:34;2.73;;;2.43;;
6937;SDS011;40040;42.706;23.372;2023-03-29T02:44:03;3.10;;;2.77;;
6937;SDS011;40040;42.706;23.372;2023-03-29T02:46:33;6.20;;;3.37;;
6937;SDS011;40040;42.706;23.372;2023-03-29T02:49:02;5.30;;;4.33;;
6937;SDS011;40040;42.706;23.372;2023-03-29T02:51:30;5.43;;;3.70;;
6937;SDS011;40040;42.706;23.372;2023-03-29T02:53:59;5.37;;;3.67;;
6937;SDS011;40040;42.706;23.372;2023-03-29T02:56:31;4.13;;;2.97;;
6937;SDS011;40040;42.706;23.372;2023-03-29T02:59:07;4.30;;;3.20;;
6937;SDS011;40040;42.706;23.372;2023-03-29T03:01:36;4.30;;;3.40;;
6937;SDS011;40040;42.706;23.372;2023-03-29T03:04:03;6.30;;;3.43;;
6937;SDS011;40040;42.706;23.372;2023-03-29T03:06:30;5.47;;;2.80;;
6937;SDS011;40040;42.706;23.372;2023-03-29T03:08:57;3.73;;;2.80;;
6937;SDS011;40040;42.706;23.372;2023-03-29T03:11:24;4.07;;;3.23;;
6937;SDS011;40040;42.706;23.372;2023-03-29T03:13:51;4.63;;;3.13;;
6937;SDS011;40040;42.706;23.372;2023-03-29T03:16:17;5.73;;;3.63;;
6937;SDS011;40040;42.706;23.372;2023-03-29T03:18:46;4.43;;;3.37;;
6937;SDS011;40040;42.706;23.372;2023-03-29T03:21:15;3.50;;;3.20;;
6937;SDS011;40040;42.706;23.372;2023-03-29T03:23:42;3.77;;;2.90;;
6937;SDS011;40040;42.706;23.372;2023-03-29T03:26:09;3.23;;;2.80;;
6937;SDS011;40040;42.706;23.372;2023-03-29T03:28:37;2.60;;;2.40;;
6937;SDS011;40040;42.706;23.372;2023-03-29T03:31:04;3.30;;;3.00;;
6937;SDS011;40040;42.706;23.372;2023-03-29T03:33:31;3.83;;;2.70;;
6937;SDS011;40040;42.706;23.372;2023-03-29T03:36:00;3.97;;;2.70;;
6937;SDS011;40040;42.706;23.372;2023-03-29T03:38:29;2.87;;;2.57;;
6937;SDS011;40040;42.706;23.372;2023-03-29T03:40:57;3.87;;;3.10;;
6937;SDS011;40040;42.706;23.372;2023-03-29T03:43:24;4.00;;;2.40;;
6937;SDS011;40040;42.706;23.372;2023-03-29T03:45:52;5.93;;;2.47;;
6937;SDS011;40040;42.706;23.372;2023-03-29T03:48:19;3.10;;;2.90;;
6937;SDS011;40040;42.706;23.372;2023-03-29T03:50:46;6.43;;;3.07;;
6937;SDS011;40040;42.706;23.372;2023-03-29T03:53:15;2.00;;;1.90;;
6937;SDS011;40040;42.706;23.372;2023-03-29T03:55:46;2.97;;;2.77;;
6937;SDS011;40040;42.706;23.372;2023-03-29T03:58:13;2.53;;;2.33;;
6937;SDS011;40040;42.706;23.372;2023-03-29T04:00:40;5.40;;;2.67;;
6937;SDS011;40040;42.706;23.372;2023-03-29T04:03:07;3.20;;;2.90;;
6937;SDS011;40040;42.706;23.372;2023-03-29T04:05:37;2.60;;;2.40;;
6937;SDS011;40040;42.706;23.372;2023-03-29T04:08:04;2.80;;;2.60;;
6937;SDS011;40040;42.706;23.372;2023-03-29T04:10:33;4.23;;;2.87;;
6937;SDS011;40040;42.706;23.372;2023-03-29T04:13:00;5.73;;;3.23;;
6937;SDS011;40040;42.706;23.372;2023-03-29T04:15:28;4.73;;;2.83;;
6937;SDS011;40040;42.706;23.372;2023-03-29T04:17:55;2.83;;;2.63;;
6937;SDS011;40040;42.706;23.372;2023-03-29T04:20:23;4.83;;;3.20;;
6937;SDS011;40040;42.706;23.372;2023-03-29T04:22:50;4.53;;;2.87;;
6937;SDS011;40040;42.706;23.372;2023-03-29T04:25:17;4.17;;;2.80;;
6937;SDS011;40040;42.706;23.372;2023-03-29T04:27:47;4.37;;;2.80;;
6937;SDS011;40040;42.706;23.372;2023-03-29T04:30:14;5.27;;;2.80;;
6937;SDS011;40040;42.706;23.372;2023-03-29T04:32:41;2.80;;;2.53;;
6937;SDS011;40040;42.706;23.372;2023-03-29T04:35:08;2.87;;;2.53;;
6937;SDS011;40040;42.706;23.372;2023-03-29T04:37:35;3.20;;;2.13;;
6937;SDS011;40040;42.706;23.372;2023-03-29T04:40:04;2.93;;;2.73;;
6937;SDS011;40040;42.706;23.372;2023-03-29T04:42:33;3.73;;;3.00;;
6937;SDS011;40040;42.706;23.372;2023-03-29T04:45:03;5.40;;;3.40;;
6937;SDS011;40040;42.706;23.372;2023-03-29T04:47:31;3.97;;;3.27;;
6937;SDS011;40040;42.706;23.372;2023-03-29T04:50:00;3.47;;;3.03;;
6937;SDS011;40040;42.706;23.372;2023-03-29T04:52:27;3.50;;;3.10;;
6937;SDS011;40040;42.706;23.372;2023-03-29T04:54:57;4.90;;;3.00;;
6937;SDS011;40040;42.706;23.372;2023-03-29T04:57:23;7.57;;;3.20;;
6937;SDS011;40040;42.706;23.372;2023-03-29T04:59:50;3.60;;;2.77;;
6937;SDS011;40040;42.706;23.372;2023-03-29T05:02:19;5.33;;;3.10;;
6937;SDS011;40040;42.706;23.372;2023-03-29T05:04:46;4.50;;;3.10;;
6937;SDS011;40040;42.706;23.372;2023-03-29T05:07:13;4.00;;;2.70;;
6937;SDS011;40040;42.706;23.372;2023-03-29T05:09:41;3.13;;;2.83;;
6937;SDS011;40040;42.706;23.372;2023-03-29T05:12:08;3.77;;;2.60;;
6937;SDS011;40040;42.706;23.372;2023-03-29T05:14:35;2.97;;;2.60;;
6937;SDS011;40040;42.706;23.372;2023-03-29T05:17:02;4.23;;;2.60;;
6937;SDS011;40040;42.706;23.372;2023-03-29T05:19:31;4.13;;;2.70;;
6937;SDS011;40040;42.706;23.372;2023-03-29T05:22:00;4.17;;;3.03;;
6937;SDS011;40040;42.706;23.372;2023-03-29T05:24:27;3.57;;;2.60;;
6937;SDS011;40040;42.706;23.372;2023-03-29T05:26:54;4.97;;;3.33;;
6937;SDS011;40040;42.706;23.372;2023-03-29T05:29:20;4.07;;;3.03;;
6937;SDS011;40040;42.706;23.372;2023-03-29T05:31:47;3.50;;;2.87;;
6937;SDS011;40040;42.706;23.372;2023-03-29T05:34:14;5.73;;;3.60;;
6937;SDS011;40040;42.706;23.372;2023-03-29T05:36:42;5.37;;;3.10;;
6937;SDS011;40040;42.706;23.372;2023-03-29T05:39:10;7.40;;;3.63;;
6937;SDS011;40040;42.706;23.372;2023-03-29T05:41:37;5.30;;;3.77;;
6937;SDS011;40040;42.706;23.372;2023-03-29T05:44:04;4.23;;;3.13;;
6937;SDS011;40040;42.706;23.372;2023-03-29T05:46:31;3.33;;;3.00;;
6937;SDS011;40040;42.706;23.372;2023-03-29T05:48:58;3.40;;;2.90;;
6937;SDS011;40040;42.706;23.372;2023-03-29T05:51:25;3.97;;;3.37;;
6937;SDS011;40040;42.706;23.372;2023-03-29T05:53:53;3.17;;;2.93;;
6937;SDS011;40040;42.706;23.372;2023-03-29T05:56:20;3.83;;;2.87;;
6937;SDS011;40040;42.706;23.372;2023-03-29T05:58:47;5.57;;;3.40;;
6937;SDS011;40040;42.706;23.372;2023-03-29T06:01:15;3.73;;;2.63;;
6937;SDS011;40040;42.706;23.372;2023-03-29T06:03:42;4.50;;;3.37;;
6937;SDS011;40040;42.706;23.372;2023-03-29T06:06:10;2.87;;;2.60;;
6937;SDS011;40040;42.706;23.372;2023-03-29T06:08:39;4.20;;;3.47;;
6937;SDS011;40040;42.706;23.372;2023-03-29T06:11:08;2.97;;;2.50;;
6937;SDS011;40040;42.706;23.372;2023-03-29T06:13:37;2.00;;;1.90;;
6937;SDS011;40040;42.706;23.372;2023-03-29T06:16:06;3.30;;;2.70;;
6937;SDS011;40040;42.706;23.372;2023-03-29T06:18:34;3.70;;;2.80;;
6937;SDS011;40040;42.706;23.372;2023-03-29T06:21:02;5.63;;;2.47;;
6937;SDS011;40040;42.706;23.372;2023-03-29T06:23:29;3.30;;;3.00;;
6937;SDS011;40040;42.706;23.372;2023-03-29T06:25:56;2.77;;;2.07;;
6937;SDS011;40040;42.706;23.372;2023-03-29T06:28:25;3.37;;;2.30;;
6937;SDS011;40040;42.706;23.372;2023-03-29T06:30:52;2.40;;;1.77;;
6937;SDS011;40040;42.706;23.372;2023-03-29T06:33:20;9.73;;;2.30;;
6937;SDS011;40040;42.706;23.372;2023-03-29T06:35:48;1.83;;;1.73;;
6937;SDS011;40040;42.706;23.372;2023-03-29T06:38:15;3.27;;;2.37;;
6937;SDS011;40040;42.706;23.372;2023-03-29T06:40:44;2.00;;;1.90;;
6937;SDS011;40040;42.706;23.372;2023-03-29T06:43:12;4.03;;;2.50;;
6937;SDS011;40040;42.706;23.372;2023-03-29T06:45:41;2.63;;;2.17;;
6937;SDS011;40040;42.706;23.372;2023-03-29T06:48:08;3.60;;;3.00;;
6937;SDS011;40040;42.706;23.372;2023-03-29T06:50:35;2.10;;;1.90;;
6937;SDS011;40040;42.706;23.372;2023-03-29T06:53:02;2.77;;;2.50;;
6937;SDS011;40040;42.706;23.372;2023-03-29T06:55:29;3.80;;;2.03;;
6937;SDS011;40040;42.706;23.372;2023-03-29T06:57:57;5.80;;;2.17;;
6937;SDS011;40040;42.706;23.372;2023-03-29T07:00:23;2.97;;;2.03;;
6937;SDS011;40040;42.706;23.372;2023-03-29T07:02:54;1.70;;;1.60;;
6937;SDS011;40040;42.706;23.372;2023-03-29T07:05:25;6.53;;;1.57;;
6937;SDS011;40040;42.706;23.372;2023-03-29T07:07:53;1.87;;;1.77;;
6937;SDS011;40040;42.706;23.372;2023-03-29T07:10:21;1.70;;;1.60;;
6937;SDS011;40040;42.706;23.372;2023-03-29T07:12:50;1.70;;;1.60;;
6937;SDS011;40040;42.706;23.372;2023-03-29T07:15:17;2.20;;;1.30;;
6937;SDS011;40040;42.706;23.372;2023-03-29T07:17:45;1.90;;;1.80;;
6937;SDS011;40040;42.706;23.372;2023-03-29T07:20:13;2.30;;;2.10;;
6937;SDS011;40040;42.706;23.372;2023-03-29T07:22:42;2.90;;;2.13;;
6937;SDS011;40040;42.706;23.372;2023-03-29T07:25:11;2.23;;;2.10;;
6937;SDS011;40040;42.706;23.372;2023-03-29T07:27:40;2.80;;;2.00;;
6937;SDS011;40040;42.706;23.372;2023-03-29T07:30:08;1.90;;;1.33;;
6937;SDS011;40040;42.706;23.372;2023-03-29T07:32:37;1.90;;;1.67;;
6937;SDS011;40040;42.706;23.372;2023-03-29T07:35:07;3.37;;;1.80;;
6937;SDS011;40040;42.706;23.372;2023-03-29T07:37:35;1.43;;;1.33;;
6937;SDS011;40040;42.706;23.372;2023-03-29T07:40:03;1.23;;;1.13;;
6937;SDS011;40040;42.706;23.372;2023-03-29T07:42:36;1.97;;;1.77;;
6937;SDS011;40040;42.706;23.372;2023-03-29T07:45:04;3.03;;;1.80;;
6937;SDS011;40040;42.706;23.372;2023-03-29T07:47:32;1.93;;;1.40;;
6937;SDS011;40040;42.706;23.372;2023-03-29T07:49:59;1.40;;;1.30;;
6937;SDS011;40040;42.706;23.372;2023-03-29T07:52:26;1.40;;;1.40;;
6937;SDS011;40040;42.706;23.372;2023-03-29T07:54:55;2.93;;;1.40;;
6937;SDS011;40040;42.706;23.372;2023-03-29T07:57:22;1.53;;;1.43;;
6937;SDS011;40040;42.706;23.372;2023-03-29T07:59:50;2.00;;;1.57;;
6937;SDS011;40040;42.706;23.372;2023-03-29T08:02:18;1.50;;;1.40;;
6937;SDS011;40040;42.706;23.372;2023-03-29T08:04:45;2.20;;;1.77;;
6937;SDS011;40040;42.706;23.372;2023-03-29T08:07:12;1.33;;;1.33;;
6937;SDS011;40040;42.706;23.372;2023-03-29T08:09:39;1.67;;;1.57;;
6937;SDS011;40040;42.706;23.372;2023-03-29T08:12:10;2.50;;;1.53;;
6937;SDS011;40040;42.706;23.372;2023-03-29T08:14:37;1.47;;;1.37;;
6937;SDS011;40040;42.706;23.372;2023-03-29T08:17:04;1.70;;;1.50;;
6937;SDS011;40040;42.706;23.372;2023-03-29T08:19:31;1.30;;;1.20;;
6937;SDS011;40040;42.706;23.372;2023-03-29T08:21:58;1.13;;;1.13;;
6937;SDS011;40040;42.706;23.372;2023-03-29T08:24:25;1.60;;;1.50;;
6937;SDS011;40040;42.706;23.372;2023-03-29T08:26:52;1.53;;;1.47;;
6937;SDS011;40040;42.706;23.372;2023-03-29T08:29:21;1.50;;;1.40;;
6937;SDS011;40040;42.706;23.372;2023-03-29T08:31:48;1.43;;;1.33;;
6937;SDS011;40040;42.706;23.372;2023-03-29T08:34:14;1.00;;;1.00;;
6937;SDS011;40040;42.706;23.372;2023-03-29T08:36:41;1.27;;;1.27;;
6937;SDS011;40040;42.706;23.372;2023-03-29T08:39:08;1.20;;;1.10;;
6937;SDS011;40040;42.706;23.372;2023-03-29T08:41:37;1.67;;;1.57;;
6937;SDS011;40040;42.706;23.372;2023-03-29T08:44:16;1.30;;;1.30;;
6937;SDS011;40040;42.706;23.372;2023-03-29T08:46:53;1.57;;;1.30;;
6937;SDS011;40040;42.706;23.372;2023-03-29T08:49:31;1.93;;;1.77;;
6937;SDS011;40040;42.706;23.372;2023-03-29T08:52:02;2.47;;;1.20;;
6937;SDS011;40040;42.706;23.372;2023-03-29T08:54:32;1.30;;;1.30;;
6937;SDS011;40040;42.706;23.372;2023-03-29T08:57:06;1.00;;;1.00;;
6937;SDS011;40040;42.706;23.372;2023-03-29T08:59:39;1.40;;;1.30;;
6937;SDS011;40040;42.706;23.372;2023-03-29T09:02:10;15.40;;;9.07;;
6937;SDS011;40040;42.706;23.372;2023-03-29T09:04:42;6.07;;;4.27;;
6937;SDS011;40040;42.706;23.372;2023-03-29T09:07:09;2.70;;;2.47;;
6937;SDS011;40040;42.706;23.372;2023-03-29T09:09:37;2.20;;;1.20;;
6937;SDS011;40040;42.706;23.372;2023-03-29T09:12:06;2.43;;;1.33;;
6937;SDS011;40040;42.706;23.372;2023-03-29T09:14:46;1.20;;;1.20;;
6937;SDS011;40040;42.706;23.372;2023-03-29T09:17:24;1.50;;;1.50;;
6937;SDS011;40040;42.706;23.372;2023-03-29T09:20:03;1.70;;;1.60;;
6937;SDS011;40040;42.706;23.372;2023-03-29T09:22:39;2.60;;;1.10;;
6937;SDS011;40040;42.706;23.372;2023-03-29T09:25:15;1.93;;;1.73;;
6937;SDS011;40040;42.706;23.372;2023-03-29T09:27:51;1.27;;;1.10;;
6937;SDS011;40040;42.706;23.372;2023-03-29T09:30:25;2.20;;;2.03;;
6937;SDS011;40040;42.706;23.372;2023-03-29T09:32:56;5.95;;;4.57;;
6937;SDS011;40040;42.706;23.372;2023-03-29T09:35:26;2.42;;;2.22;;
6937;SDS011;40040;42.706;23.372;2023-03-29T09:37:58;2.65;;;2.25;;
6937;SDS011;40040;42.706;23.372;2023-03-29T09:40:26;2.35;;;1.50;;
6937;SDS011;40040;42.706;23.372;2023-03-29T09:42:58;1.40;;;1.30;;
6937;SDS011;40040;42.706;23.372;2023-03-29T09:45:30;2.78;;;2.60;;
6937;SDS011;40040;42.706;23.372;2023-03-29T09:47:57;1.63;;;1.50;;
6937;SDS011;40040;42.706;23.372;2023-03-29T09:50:33;1.40;;;1.40;;
6937;SDS011;40040;42.706;23.372;2023-03-29T09:53:06;1.02;;;1.02;;
6937;SDS011;40040;42.706;23.372;2023-03-29T09:55:33;1.65;;;1.65;;
6937;SDS011;40040;42.706;23.372;2023-03-29T09:58:06;2.15;;;1.90;;
6937;SDS011;40040;42.706;23.372;2023-03-29T10:00:40;4.35;;;1.30;;
6937;SDS011;40040;42.706;23.372;2023-03-29T10:03:07;6.63;;;1.77;;
6937;SDS011;40040;42.706;23.372;2023-03-29T10:05:35;1.77;;;1.65;;
6937;SDS011;40040;42.706;23.372;2023-03-29T10:08:07;1.48;;;1.30;;
6937;SDS011;40040;42.706;23.372;2023-03-29T10:10:43;2.50;;;1.60;;
6937;SDS011;40040;42.706;23.372;2023-03-29T10:13:11;2.08;;;1.50;;
6937;SDS011;40040;42.706;23.372;2023-03-29T10:15:43;1.80;;;1.70;;
6937;SDS011;40040;42.706;23.372;2023-03-29T10:18:12;1.52;;;1.42;;
6937;SDS011;40040;42.706;23.372;2023-03-29T10:20:41;1.85;;;1.23;;
6937;SDS011;40040;42.706;23.372;2023-03-29T10:23:08;1.48;;;1.38;;
6937;SDS011;40040;42.706;23.372;2023-03-29T10:25:42;1.23;;;1.23;;
6937;SDS011;40040;42.706;23.372;2023-03-29T10:28:10;1.58;;;1.50;;
6937;SDS011;40040;42.706;23.372;2023-03-29T10:30:40;1.30;;;1.23;;
6937;SDS011;40040;42.706;23.372;2023-03-29T10:33:14;1.00;;;1.00;;
6937;SDS011;40040;42.706;23.372;2023-03-29T10:35:45;1.40;;;1.40;;
6937;SDS011;40040;42.706;23.372;2023-03-29T10:38:14;1.50;;;1.40;;
6937;SDS011;40040;42.706;23.372;2023-03-29T10:40:43;3.17;;;1.60;;
6937;SDS011;40040;42.706;23.372;2023-03-29T10:43:12;1.70;;;1.60;;
6937;SDS011;40040;42.706;23.372;2023-03-29T10:45:46;2.08;;;1.83;;
6937;SDS011;40040;42.706;23.372;2023-03-29T10:48:15;1.50;;;1.50;;
6937;SDS011;40040;42.706;23.372;2023-03-29T10:50:47;2.33;;;2.22;;
6937;SDS011;40040;42.706;23.372;2023-03-29T10:53:16;3.53;;;1.38;;
6937;SDS011;40040;42.706;23.372;2023-03-29T10:55:50;1.70;;;1.30;;
6937;SDS011;40040;42.706;23.372;2023-03-29T10:58:35;1.95;;;1.85;;
6937;SDS011;40040;42.706;23.372;2023-03-29T11:01:13;1.67;;;1.67;;
6937;SDS011;40040;42.706;23.372;2023-03-29T11:03:51;2.65;;;2.45;;
6937;SDS011;40040;42.706;23.372;2023-03-29T11:06:29;1.92;;;1.90;;
6937;SDS011;40040;42.706;23.372;2023-03-29T11:09:02;2.30;;;2.10;;
6937;SDS011;40040;42.706;23.372;2023-03-29T11:11:50;4.30;;;1.83;;
6937;SDS011;40040;42.706;23.372;2023-03-29T11:14:28;1.70;;;1.60;;
6937;SDS011;40040;42.706;23.372;2023-03-29T11:17:07;1.63;;;1.52;;
6937;SDS011;40040;42.706;23.372;2023-03-29T11:19:51;1.88;;;1.88;;
6937;SDS011;40040;42.706;23.372;2023-03-29T11:22:28;1.50;;;1.20;;
6937;SDS011;40040;42.706;23.372;2023-03-29T11:25:17;1.98;;;1.88;;
6937;SDS011;40040;42.706;23.372;2023-03-29T11:27:55;1.70;;;1.60;;
6937;SDS011;40040;42.706;23.372;2023-03-29T11:30:32;3.47;;;1.90;;
6937;SDS011;40040;42.706;23.372;2023-03-29T11:33:09;1.63;;;1.60;;
6937;SDS011;40040;42.706;23.372;2023-03-29T11:35:54;1.90;;;1.70;;
6937;SDS011;40040;42.706;23.372;2023-03-29T11:38:28;2.45;;;1.50;;
6937;SDS011;40040;42.706;23.372;2023-03-29T11:41:00;1.30;;;1.30;;
6937;SDS011;40040;42.706;23.372;2023-03-29T11:43:34;1.38;;;1.27;;
6937;SDS011;40040;42.706;23.372;2023-03-29T11:46:07;2.42;;;1.42;;
6937;SDS011;40040;42.706;23.372;2023-03-29T11:48:38;1.42;;;1.33;;
6937;SDS011;40040;42.706;23.372;2023-03-29T11:51:14;1.60;;;1.58;;
6937;SDS011;40040;42.706;23.372;2023-03-29T11:53:45;1.23;;;1.23;;
6937;SDS011;40040;42.706;23.372;2023-03-29T11:56:18;2.15;;;1.55;;
6937;SDS011;40040;42.706;23.372;2023-03-29T11:58:52;1.90;;;1.30;;
6937;SDS011;40040;42.706;23.372;2023-03-29T12:01:25;1.50;;;1.40;;
6937;SDS011;40040;42.706;23.372;2023-03-29T12:03:56;1.30;;;1.20;;
6937;SDS011;40040;42.706;23.372;2023-03-29T12:06:28;1.73;;;1.63;;
6937;SDS011;40040;42.706;23.372;2023-03-29T12:09:01;1.50;;;1.40;;
6937;SDS011;40040;42.706;23.372;2023-03-29T12:11:32;2.08;;;1.60;;
6937;SDS011;40040;42.706;23.372;2023-03-29T12:14:04;3.13;;;1.25;;
6937;SDS011;40040;42.706;23.372;2023-03-29T12:16:40;2.00;;;1.90;;
6937;SDS011;40040;42.706;23.372;2023-03-29T12:19:13;1.58;;;1.50;;
6937;SDS011;40040;42.706;23.372;2023-03-29T12:21:45;2.08;;;1.80;;
6937;SDS011;40040;42.706;23.372;2023-03-29T12:24:14;1.70;;;1.70;;
6937;SDS011;40040;42.706;23.372;2023-03-29T12:26:49;2.33;;;2.20;;
6937;SDS011;40040;42.706;23.372;2023-03-29T12:29:31;2.20;;;1.73;;
6937;SDS011;40040;42.706;23.372;2023-03-29T12:32:11;1.98;;;1.88;;
6937;SDS011;40040;42.706;23.372;2023-03-29T12:34:53;2.28;;;2.08;;
6937;SDS011;40040;42.706;23.372;2023-03-29T12:37:33;4.93;;;3.25;;
6937;SDS011;40040;42.706;23.372;2023-03-29T12:40:09;2.40;;;1.70;;
6937;SDS011;40040;42.706;23.372;2023-03-29T12:42:45;2.03;;;1.92;;
6937;SDS011;40040;42.706;23.372;2023-03-29T12:45:15;2.50;;;1.60;;
6937;SDS011;40040;42.706;23.372;2023-03-29T12:47:45;4.70;;;1.92;;
6937;SDS011;40040;42.706;23.372;2023-03-29T12:50:16;2.17;;;2.08;;
6937;SDS011;40040;42.706;23.372;2023-03-29T12:52:50;2.95;;;2.03;;
6937;SDS011;40040;42.706;23.372;2023-03-29T12:55:20;1.70;;;1.60;;
6937;SDS011;40040;42.706;23.372;2023-03-29T12:57:57;2.13;;;2.03;;
6937;SDS011;40040;42.706;23.372;2023-03-29T13:00:30;2.00;;;1.90;;
6937;SDS011;40040;42.706;23.372;2023-03-29T13:02:59;1.98;;;1.67;;
6937;SDS011;40040;42.706;23.372;2023-03-29T13:05:32;1.77;;;1.70;;
6937;SDS011;40040;42.706;23.372;2023-03-29T13:10:51;2.13;;;1.70;;
6937;SDS011;40040;42.706;23.372;2023-03-29T13:13:20;1.60;;;1.50;;
6937;SDS011;40040;42.706;23.372;2023-03-29T13:15:50;1.50;;;1.40;;
6937;SDS011;40040;42.706;23.372;2023-03-29T13:18:27;1.45;;;1.42;;
6937;SDS011;40040;42.706;23.372;2023-03-29T13:21:03;1.83;;;1.73;;
6937;SDS011;40040;42.706;23.372;2023-03-29T13:23:47;1.55;;;1.48;;
6937;SDS011;40040;42.706;23.372;2023-03-29T13:26:27;1.55;;;1.45;;
6937;SDS011;40040;42.706;23.372;2023-03-29T13:29:19;2.42;;;1.58;;
6937;SDS011;40040;42.706;23.372;2023-03-29T13:32:04;2.28;;;2.08;;
6937;SDS011;40040;42.706;23.372;2023-03-29T13:34:44;1.58;;;1.58;;
6937;SDS011;40040;42.706;23.372;2023-03-29T13:37:22;2.53;;;2.38;;
6937;SDS011;40040;42.706;23.372;2023-03-29T13:39:58;1.73;;;1.63;;
6937;SDS011;40040;42.706;23.372;2023-03-29T13:42:36;2.47;;;2.08;;
6937;SDS011;40040;42.706;23.372;2023-03-29T13:45:09;1.60;;;1.50;;
6937;SDS011;40040;42.706;23.372;2023-03-29T13:47:40;4.22;;;1.55;;
6937;SDS011;40040;42.706;23.372;2023-03-29T13:50:14;2.85;;;1.70;;
6937;SDS011;40040;42.706;23.372;2023-03-29T13:52:44;2.15;;;1.95;;
6937;SDS011;40040;42.706;23.372;2023-03-29T13:55:25;2.00;;;1.90;;
6937;SDS011;40040;42.706;23.372;2023-03-29T13:57:56;1.65;;;1.58;;
6937;SDS011;40040;42.706;23.372;2023-03-29T14:00:27;1.77;;;1.70;;
6937;SDS011;40040;42.706;23.372;2023-03-29T14:03:01;3.80;;;1.90;;
6937;SDS011;40040;42.706;23.372;2023-03-29T14:05:33;8.27;;;2.25;;
6937;SDS011;40040;42.706;23.372;2023-03-29T14:08:04;3.80;;;2.20;;
6937;SDS011;40040;42.706;23.372;2023-03-29T14:10:38;1.80;;;1.70;;
6937;SDS011;40040;42.706;23.372;2023-03-29T14:13:09;1.50;;;1.40;;
6937;SDS011;40040;42.706;23.372;2023-03-29T14:15:41;2.42;;;1.60;;
6937;SDS011;40040;42.706;23.372;2023-03-29T14:18:10;2.00;;;1.90;;
6937;SDS011;40040;42.706;23.372;2023-03-29T14:20:41;2.40;;;1.90;;
6937;SDS011;40040;42.706;23.372;2023-03-29T14:23:10;1.73;;;1.63;;
6937;SDS011;40040;42.706;23.372;2023-03-29T14:25:43;10.25;;;5.65;;
6937;SDS011;40040;42.706;23.372;2023-03-29T14:28:11;7.28;;;3.90;;
6937;SDS011;40040;42.706;23.372;2023-03-29T14:30:45;1.90;;;1.80;;
6937;SDS011;40040;42.706;23.372;2023-03-29T14:33:14;2.05;;;1.45;;
6937;SDS011;40040;42.706;23.372;2023-03-29T14:35:50;1.42;;;1.33;;
6937;SDS011;40040;42.706;23.372;2023-03-29T14:38:17;1.80;;;1.70;;
6937;SDS011;40040;42.706;23.372;2023-03-29T14:40:46;4.40;;;3.38;;
6937;SDS011;40040;42.706;23.372;2023-03-29T14:43:13;4.70;;;3.03;;
6937;SDS011;40040;42.706;23.372;2023-03-29T14:45:44;3.95;;;1.92;;
6937;SDS011;40040;42.706;23.372;2023-03-29T14:48:11;1.63;;;1.52;;
6937;SDS011;40040;42.706;23.372;2023-03-29T14:50:40;4.13;;;2.10;;
6937;SDS011;40040;42.706;23.372;2023-03-29T14:53:09;1.90;;;1.65;;
6937;SDS011;40040;42.706;23.372;2023-03-29T14:55:43;1.55;;;1.45;;
6937;SDS011;40040;42.706;23.372;2023-03-29T14:58:16;2.03;;;1.90;;
6937;SDS011;40040;42.706;23.372;2023-03-29T15:00:47;1.70;;;1.60;;
6937;SDS011;40040;42.706;23.372;2023-03-29T15:03:16;2.03;;;1.92;;
6937;SDS011;40040;42.706;23.372;2023-03-29T15:05:46;1.70;;;1.63;;
6937;SDS011;40040;42.706;23.372;2023-03-29T15:08:16;1.85;;;1.77;;
6937;SDS011;40040;42.706;23.372;2023-03-29T15:10:46;1.35;;;1.30;;
6937;SDS011;40040;42.706;23.372;2023-03-29T15:13:14;2.10;;;1.98;;